Time;durP1;ratioP1;P1;durP2;ratioP2;P2;SDS_P1;SDS_P2;PMS_P1;PMS_P2;Temp;Humidity;BMP_temperature;BMP_pressure;BME280_temperature;BME280_humidity;BME280_pressure;Samples;Min_cycle;Max_cycle;Signal;HPM_P1;HPM_P2
2021/04/23 00:00:55;;;;;;;7.78;7.15;;;17.60;92.30;;;;;;5073552;28;20097;-60
2021/04/23 00:03:22;;;;;;;7.70;7.20;;;17.40;91.50;;;;;;5073526;28;20027;-61
2021/04/23 00:06:12;;;;;;;7.72;7.20;;;17.40;91.50;;;;;;5075013;28;20053;-61
2021/04/23 00:08:43;;;;;;;8.10;7.30;;;17.50;91.80;;;;;;5074887;28;20103;-60
2021/04/23 00:11:11;;;;;;;7.32;6.82;;;17.50;91.90;;;;;;5074962;28;20375;-60
2021/04/23 00:13:40;;;;;;;7.82;7.15;;;17.40;91.30;;;;;;5074697;28;20370;-58
2021/04/23 00:16:09;;;;;;;8.23;7.30;;;17.50;91.30;;;;;;5074652;28;20016;-59
2021/04/23 00:18:37;;;;;;;8.65;7.95;;;17.70;91.90;;;;;;5074521;28;20046;-59
2021/04/23 00:21:07;;;;;;;8.85;8.15;;;17.60;91.20;;;;;;5074642;28;20028;-61
2021/04/23 00:23:35;;;;;;;8.07;7.47;;;17.70;91.20;;;;;;5074828;28;20033;-61
2021/04/23 00:26:05;;;;;;;8.40;7.80;;;17.60;91.50;;;;;;5074494;28;20397;-59
2021/04/23 00:28:35;;;;;;;8.77;7.93;;;17.70;91.20;;;;;;5074559;28;20017;-59
2021/04/23 00:31:03;;;;;;;12.10;7.80;;;17.90;91.50;;;;;;5074039;28;20031;-58
2021/04/23 00:33:31;;;;;;;8.23;7.53;;;18.00;90.70;;;;;;5074268;28;20024;-59
2021/04/23 00:35:59;;;;;;;8.38;7.50;;;18.20;90.40;;;;;;5074328;28;20017;-59
2021/04/23 00:38:28;;;;;;;8.02;7.25;;;18.20;90.40;;;;;;5074328;28;20021;-59
2021/04/23 00:41:13;;;;;;;7.93;7.32;;;18.10;90.30;;;;;;5074193;28;20076;-58
2021/04/23 00:43:46;;;;;;;8.10;7.40;;;18.10;90.50;;;;;;5074187;28;20024;-58
2021/04/23 00:46:14;;;;;;;8.73;7.93;;;18.20;90.90;;;;;;5074093;28;20037;-58
2021/04/23 00:48:46;;;;;;;7.95;7.22;;;18.20;90.30;;;;;;5074088;28;20020;-58
2021/04/23 00:51:25;;;;;;;7.68;7.00;;;18.10;90.30;;;;;;5074037;28;20034;-58
2021/04/23 00:53:54;;;;;;;7.82;7.32;;;18.20;90.40;;;;;;5072520;28;20079;-57
2021/04/23 00:56:29;;;;;;;8.13;7.43;;;18.10;90.50;;;;;;5074093;28;20469;-58
2021/04/23 00:58:59;;;;;;;9.00;8.23;;;18.20;90.10;;;;;;5073802;28;20021;-57
2021/04/23 01:01:32;;;;;;;8.73;8.02;;;18.30;90.60;;;;;;5073762;28;20016;-58
2021/04/23 01:04:00;;;;;;;9.73;8.93;;;18.40;90.20;;;;;;5073651;28;20025;-58
2021/04/23 01:06:30;;;;;;;10.00;8.95;;;18.30;90.10;;;;;;5073569;28;20033;-58
2021/04/23 01:09:00;;;;;;;9.75;8.95;;;18.30;88.90;;;;;;5074143;28;20025;-58
2021/04/23 01:11:28;;;;;;;9.80;8.65;;;18.40;90.00;;;;;;5072390;28;20043;-58
2021/04/23 01:13:56;;;;;;;9.70;9.00;;;18.60;90.30;;;;;;5073657;28;20108;-58
2021/04/23 01:16:25;;;;;;;9.90;9.10;;;18.80;88.60;;;;;;5073491;28;20019;-59
2021/04/23 01:18:54;;;;;;;10.98;9.82;;;18.60;89.30;;;;;;5073372;28;20023;-59
2021/04/23 01:21:27;;;;;;;9.68;8.93;;;18.90;89.50;;;;;;5073451;28;20389;-62
2021/04/23 01:23:56;;;;;;;9.50;8.68;;;19.20;89.00;;;;;;5073458;28;20493;-61
2021/04/23 01:26:28;;;;;;;9.20;8.60;;;19.30;87.40;;;;;;5073239;28;20100;-62
2021/04/23 01:28:56;;;;;;;9.02;8.40;;;19.30;88.00;;;;;;5073345;28;20376;-62
2021/04/23 01:31:27;;;;;;;9.60;8.80;;;19.50;88.00;;;;;;5073364;28;20034;-62
2021/04/23 01:33:59;;;;;;;8.98;8.13;;;19.90;87.80;;;;;;5073185;28;20112;-61
2021/04/23 01:36:27;;;;;;;8.23;7.53;;;19.70;86.70;;;;;;5073161;28;20033;-61
2021/04/23 01:38:55;;;;;;;7.97;7.47;;;20.00;86.40;;;;;;5072852;28;20063;-60
2021/04/23 01:41:23;;;;;;;7.95;7.25;;;20.00;85.50;;;;;;5072525;28;20021;-60
2021/04/23 01:43:52;;;;;;;8.05;7.45;;;19.40;86.60;;;;;;5072922;28;20024;-58
2021/04/23 01:46:20;;;;;;;7.82;7.22;;;19.50;86.50;;;;;;5073035;28;20024;-62
2021/04/23 01:48:47;;;;;;;19.45;8.50;;;19.40;87.00;;;;;;5073145;28;20526;-58
2021/04/23 01:51:16;;;;;;;8.27;7.78;;;19.50;88.30;;;;;;5072931;28;20094;-59
2021/04/23 01:53:44;;;;;;;8.10;7.60;;;19.80;87.40;;;;;;5072875;28;20413;-59
2021/04/23 01:56:11;;;;;;;8.85;8.02;;;19.80;86.10;;;;;;5073221;28;20024;-58
2021/04/23 01:58:40;;;;;;;9.15;8.45;;;19.90;87.20;;;;;;5072849;28;20426;-58
2021/04/23 02:01:09;;;;;;;8.75;8.23;;;19.90;86.40;;;;;;5071902;28;20020;-59
2021/04/23 02:03:37;;;;;;;9.07;8.48;;;20.00;86.70;;;;;;5072894;28;20036;-58
2021/04/23 02:06:06;;;;;;;10.00;9.23;;;20.00;86.00;;;;;;5072994;28;20031;-58
2021/04/23 02:08:33;;;;;;;8.70;8.00;;;20.10;86.80;;;;;;5072966;28;20504;-58
2021/04/23 02:11:03;;;;;;;8.85;8.00;;;19.70;86.00;;;;;;5072883;28;20020;-60
2021/04/23 02:13:30;;;;;;;8.70;8.20;;;19.90;88.30;;;;;;5072756;28;20020;-60
2021/04/23 02:15:59;;;;;;;8.60;8.00;;;20.10;87.70;;;;;;5071650;28;20029;-60
2021/04/23 02:18:27;;;;;;;8.10;7.53;;;20.20;86.40;;;;;;5072806;28;20017;-60
2021/04/23 02:20:54;;;;;;;8.10;7.60;;;20.60;84.90;;;;;;5071564;28;20370;-61
2021/04/23 02:23:23;;;;;;;8.43;7.90;;;20.90;84.50;;;;;;5072751;28;20025;-60
2021/04/23 02:25:53;;;;;;;8.43;7.70;;;21.00;84.20;;;;;;5072751;28;20032;-62
2021/04/23 02:28:21;;;;;;;8.32;7.82;;;20.60;83.00;;;;;;5071468;28;20028;-61
2021/04/23 02:30:55;;;;;;;8.48;7.78;;;20.50;83.50;;;;;;5072594;28;20434;-60
2021/04/23 02:33:24;;;;;;;7.70;7.32;;;20.50;85.80;;;;;;5072404;28;20082;-60
2021/04/23 02:35:53;;;;;;;8.27;7.70;;;20.60;83.60;;;;;;5072634;28;20020;-60
2021/04/23 02:38:21;;;;;;;8.35;7.75;;;20.60;82.50;;;;;;5072591;28;20032;-62
2021/04/23 02:40:49;;;;;;;8.80;8.10;;;20.60;83.80;;;;;;5072448;28;20409;-59
2021/04/23 02:43:23;;;;;;;8.00;7.55;;;20.60;83.60;;;;;;5072528;28;20024;-62
2021/04/23 02:45:52;;;;;;;8.27;7.78;;;20.50;83.10;;;;;;5071412;28;20025;-61
2021/04/23 02:48:22;;;;;;;8.15;7.60;;;20.80;82.30;;;;;;5072753;28;20389;-62
2021/04/23 02:50:55;;;;;;;7.90;7.50;;;20.80;83.00;;;;;;5072620;28;20066;-64
2021/04/23 02:53:22;;;;;;;7.60;7.20;;;20.80;83.50;;;;;;5073568;28;20052;-64
2021/04/23 02:55:50;;;;;;;7.70;7.10;;;20.80;84.60;;;;;;5076225;28;20020;-61
2021/04/23 02:58:20;;;;;;;8.20;7.50;;;20.60;83.40;;;;;;5076111;28;20101;-63
2021/04/23 03:00:52;;;;;;;7.88;7.38;;;20.70;83.50;;;;;;5076182;28;20017;-62
2021/04/23 03:03:20;;;;;;;7.45;7.05;;;20.80;82.80;;;;;;5076245;28;20036;-66
2021/04/23 03:05:49;;;;;;;8.23;7.53;;;20.80;83.90;;;;;;5075918;28;20025;-64
2021/04/23 03:08:18;;;;;;;7.63;7.13;;;21.00;83.50;;;;;;5076043;28;20020;-64
2021/04/23 03:10:56;;;;;;;8.07;7.50;;;21.30;83.20;;;;;;5075890;28;20099;-66
2021/04/23 03:13:26;;;;;;;7.70;7.20;;;21.40;81.80;;;;;;5076027;28;20028;-68
2021/04/23 03:15:54;;;;;;;7.40;7.00;;;21.20;81.70;;;;;;5075934;28;20104;-62
2021/04/23 03:18:25;;;;;;;7.88;7.30;;;20.70;82.00;;;;;;5075925;28;20034;-68
2021/04/23 03:20:54;;;;;;;7.53;7.13;;;20.80;83.00;;;;;;5075882;28;20013;-67
2021/04/23 03:23:22;;;;;;;7.77;7.27;;;21.30;83.60;;;;;;5075865;28;20032;-63
2021/04/23 03:25:50;;;;;;;7.68;7.20;;;21.50;82.60;;;;;;5075756;28;20044;-61
2021/04/23 03:28:17;;;;;;;6.88;6.50;;;20.90;82.20;;;;;;5074378;28;20025;-63
2021/04/23 03:30:45;;;;;;;7.80;7.20;;;20.80;84.10;;;;;;5075714;28;20078;-61
2021/04/23 03:33:14;;;;;;;7.78;7.20;;;21.20;82.90;;;;;;5075557;28;20054;-61
2021/04/23 03:35:45;;;;;;;7.90;7.20;;;21.30;82.30;;;;;;5075602;28;20096;-61
2021/04/23 03:38:13;;;;;;;8.25;7.60;;;21.30;81.70;;;;;;5075622;28;20067;-62
2021/04/23 03:40:42;;;;;;;7.22;6.82;;;21.50;81.00;;;;;;5075592;28;20056;-62
2021/04/23 03:43:10;;;;;;;8.30;7.50;;;21.30;81.70;;;;;;5075340;28;20020;-62
2021/04/23 03:45:38;;;;;;;8.30;7.63;;;21.10;81.40;;;;;;5075034;28;20047;-61
2021/04/23 03:48:07;;;;;;;7.78;7.18;;;21.30;82.20;;;;;;5075363;28;20027;-62
2021/04/23 03:50:36;;;;;;;7.75;7.18;;;21.60;83.40;;;;;;5075306;28;20028;-62
2021/04/23 03:53:08;;;;;;;7.93;7.35;;;21.60;81.50;;;;;;5075037;28;20099;-62
2021/04/23 03:55:45;;;;;;;7.57;7.15;;;21.40;80.90;;;;;;5075121;28;20020;-62
2021/04/23 03:58:14;;;;;;;7.90;7.40;;;21.20;84.20;;;;;;5075020;28;20017;-63
2021/04/23 04:00:59;;;;;;;7.50;7.10;;;21.50;81.30;;;;;;5075069;28;20480;-62
2021/04/23 04:03:28;;;;;;;7.72;7.13;;;21.40;81.20;;;;;;5074751;28;20021;-60
2021/04/23 04:05:56;;;;;;;7.60;7.10;;;21.80;83.20;;;;;;5073883;28;20036;-60
2021/04/23 04:08:24;;;;;;;7.10;6.70;;;22.10;82.20;;;;;;5074642;28;20040;-61
2021/04/23 04:10:52;;;;;;;7.13;6.63;;;21.60;80.80;;;;;;5074784;28;20024;-61
2021/04/23 04:13:19;;;;;;;6.90;6.40;;;21.60;81.10;;;;;;5074681;28;20031;-60
2021/04/23 04:15:47;;;;;;;6.90;6.40;;;21.50;81.90;;;;;;5074748;28;20027;-61
2021/04/23 04:18:16;;;;;;;6.93;6.40;;;21.50;80.60;;;;;;5074817;28;20078;-62
2021/04/23 04:20:47;;;;;;;7.32;6.72;;;21.60;81.90;;;;;;5074601;28;20389;-61
2021/04/23 04:23:17;;;;;;;7.25;6.65;;;21.60;81.70;;;;;;5074519;28;20024;-62
2021/04/23 04:25:55;;;;;;;7.30;6.80;;;21.70;82.10;;;;;;5074570;28;20107;-61
2021/04/23 04:28:24;;;;;;;7.70;7.20;;;21.90;81.60;;;;;;5074628;28;20066;-61
2021/04/23 04:30:51;;;;;;;7.85;7.30;;;21.80;81.00;;;;;;5074513;28;20033;-61
2021/04/23 04:33:19;;;;;;;6.60;6.30;;;22.10;82.90;;;;;;5074322;28;20439;-61
2021/04/23 04:35:47;;;;;;;7.03;6.43;;;22.20;84.00;;;;;;5074312;28;20032;-61
2021/04/23 04:38:15;;;;;;;7.07;6.70;;;21.90;80.70;;;;;;5074142;28;20032;-61
2021/04/23 04:40:45;;;;;;;7.10;6.60;;;21.80;82.40;;;;;;5072746;28;20404;-61
2021/04/23 04:43:15;;;;;;;7.10;6.70;;;22.00;82.20;;;;;;5074268;28;20074;-61
2021/04/23 04:45:43;;;;;;;7.47;6.97;;;21.90;81.30;;;;;;5074023;28;20126;-61
2021/04/23 04:48:11;;;;;;;6.70;6.20;;;21.80;81.30;;;;;;5074112;28;20103;-61
2021/04/23 04:51:09;;;;;;;6.65;6.15;;;21.60;81.60;;;;;;5074124;28;20020;-61
2021/04/23 04:53:36;;;;;;;6.80;6.40;;;21.70;81.70;;;;;;5056898;28;20043;-62
2021/04/23 04:56:04;;;;;;;6.78;6.28;;;21.80;82.20;;;;;;5073770;28;20161;-61
2021/04/23 04:58:34;;;;;;;7.32;6.72;;;21.80;80.40;;;;;;5073735;28;20073;-61
2021/04/23 05:01:05;;;;;;;7.60;6.90;;;21.80;86.00;;;;;;5073696;28;20029;-61
2021/04/23 05:03:33;;;;;;;9.07;7.68;;;21.60;87.40;;;;;;5074033;28;20055;-61
2021/04/23 05:06:00;;;;;;;7.95;7.25;;;21.30;88.90;;;;;;5073664;28;20024;-63
2021/04/23 05:08:28;;;;;;;8.38;7.78;;;20.80;90.20;;;;;;5073518;28;20032;-61
2021/04/23 05:10:55;;;;;;;8.43;7.70;;;20.80;90.30;;;;;;5073606;28;20476;-61
2021/04/23 05:13:23;;;;;;;8.30;7.80;;;20.70;90.10;;;;;;5073645;28;20051;-62
2021/04/23 05:15:50;;;;;;;7.72;7.13;;;20.70;90.50;;;;;;5073465;28;20021;-61
2021/04/23 05:18:18;;;;;;;9.02;8.20;;;20.60;90.80;;;;;;5073501;28;20054;-62
2021/04/23 05:20:46;;;;;;;8.30;7.53;;;20.60;90.50;;;;;;5073330;28;20016;-61
2021/04/23 05:23:13;;;;;;;8.02;7.32;;;20.60;90.50;;;;;;5073665;28;20060;-61
2021/04/23 05:25:41;;;;;;;8.30;7.70;;;20.50;90.70;;;;;;5073494;28;20052;-62
2021/04/23 05:28:08;;;;;;;8.48;7.78;;;20.40;91.00;;;;;;5073317;28;20028;-61
2021/04/23 05:30:38;;;;;;;8.50;7.90;;;20.30;91.00;;;;;;5073398;28;20027;-62
2021/04/23 05:33:08;;;;;;;8.43;7.82;;;20.10;91.10;;;;;;5073332;28;20103;-62
2021/04/23 05:35:38;;;;;;;9.10;8.10;;;20.10;91.30;;;;;;5073409;28;20053;-62
2021/04/23 05:38:06;;;;;;;8.13;7.55;;;20.00;91.20;;;;;;5071976;28;20051;-62
2021/04/23 05:40:37;;;;;;;8.20;7.57;;;20.00;91.50;;;;;;5073102;28;20048;-62
2021/04/23 05:43:05;;;;;;;8.02;7.53;;;20.00;91.40;;;;;;5073193;28;20107;-62
2021/04/23 05:45:34;;;;;;;7.82;7.22;;;19.80;91.60;;;;;;5073208;28;20029;-62
2021/04/23 05:48:02;;;;;;;8.50;7.70;;;19.90;92.00;;;;;;5073654;28;20020;-61
2021/04/23 05:50:29;;;;;;;12.43;8.48;;;19.90;92.00;;;;;;5073068;28;20048;-60
2021/04/23 05:52:57;;;;;;;8.57;7.78;;;19.80;91.90;;;;;;5072953;28;20017;-61
2021/04/23 05:55:26;;;;;;;8.38;7.68;;;19.80;92.10;;;;;;5072960;28;20059;-62
2021/04/23 05:57:57;;;;;;;8.50;7.57;;;19.70;92.10;;;;;;5073012;28;20415;-62
2021/04/23 06:00:29;;;;;;;12.02;8.13;;;19.50;92.30;;;;;;5073094;28;20074;-59
2021/04/23 06:02:58;;;;;;;8.90;8.00;;;19.50;92.30;;;;;;5072770;28;20020;-61
2021/04/23 06:05:29;;;;;;;7.85;6.93;;;19.50;92.70;;;;;;5072720;28;20016;-62
2021/04/23 06:07:59;;;;;;;12.80;8.48;;;19.60;92.40;;;;;;5072821;28;20013;-62
2021/04/23 06:10:28;;;;;;;12.88;7.88;;;19.60;92.80;;;;;;5072929;28;20486;-62
2021/04/23 06:12:57;;;;;;;8.80;7.22;;;19.40;92.50;;;;;;5072745;28;20029;-63
2021/04/23 06:15:25;;;;;;;9.38;7.25;;;19.50;93.10;;;;;;5071416;28;20514;-56
2021/04/23 06:17:54;;;;;;;14.32;7.80;;;19.50;92.90;;;;;;5072643;28;20017;-61
2021/04/23 06:20:30;;;;;;;8.30;6.78;;;19.40;92.70;;;;;;5071452;28;20020;-61
2021/04/23 06:22:58;;;;;;;7.90;7.10;;;19.20;92.50;;;;;;5072685;28;20040;-61
2021/04/23 06:25:26;;;;;;;17.83;8.82;;;19.10;93.00;;;;;;5071346;28;20025;-60
2021/04/23 06:27:54;;;;;;;7.80;6.88;;;19.10;93.00;;;;;;5072964;28;20027;-60
2021/04/23 06:30:27;;;;;;;7.30;6.80;;;18.90;92.60;;;;;;5076689;28;20042;-60
2021/04/23 06:32:59;;;;;;;8.70;7.00;;;18.90;93.20;;;;;;5076714;28;20055;-60
2021/04/23 06:35:31;;;;;;;11.52;8.38;;;18.80;93.20;;;;;;5076634;28;20052;-60
2021/04/23 06:37:59;;;;;;;10.45;7.57;;;18.80;93.70;;;;;;5076453;28;20024;-60
2021/04/23 06:40:26;;;;;;;10.82;7.55;;;18.70;93.40;;;;;;5076358;28;20047;-61
2021/04/23 06:42:54;;;;;;;10.10;7.70;;;18.70;93.90;;;;;;5076520;28;20024;-61
2021/04/23 06:45:22;;;;;;;7.43;6.68;;;18.60;93.70;;;;;;5076596;28;20020;-60
2021/04/23 06:47:50;;;;;;;8.82;8.05;;;18.60;93.70;;;;;;5076333;28;20405;-60
2021/04/23 06:50:21;;;;;;;8.25;7.65;;;18.40;93.80;;;;;;5076213;28;20017;-60
2021/04/23 06:52:48;;;;;;;;;;;18.40;94.30;;;;;;5076726;28;20024;-60
2021/04/23 06:55:17;;;;;;;11.82;8.00;;;18.30;94.10;;;;;;5076098;28;20257;-60
2021/04/23 06:57:45;;;;;;;9.43;8.00;;;18.20;94.30;;;;;;5076109;28;20092;-60
2021/04/23 07:00:27;;;;;;;8.60;7.82;;;18.10;94.00;;;;;;5076061;28;20021;-59
2021/04/23 07:02:55;;;;;;;8.32;7.53;;;18.00;94.20;;;;;;5076011;28;20443;-59
2021/04/23 07:05:24;;;;;;;8.30;7.75;;;17.90;94.40;;;;;;5076007;28;20025;-60
2021/04/23 07:07:51;;;;;;;7.50;7.00;;;17.80;94.60;;;;;;5075906;28;20025;-60
2021/04/23 07:10:25;;;;;;;8.43;7.72;;;17.70;94.30;;;;;;5075954;28;20021;-60
2021/04/23 07:12:52;;;;;;;8.35;7.72;;;17.60;94.80;;;;;;5075981;28;20086;-60
2021/04/23 07:15:24;;;;;;;7.88;7.40;;;17.40;94.70;;;;;;5075731;28;20032;-60
2021/04/23 07:17:52;;;;;;;8.30;7.70;;;17.40;95.00;;;;;;5075943;28;20021;-60
2021/04/23 07:20:20;;;;;;;8.40;7.80;;;17.30;94.60;;;;;;5075754;28;20021;-60
2021/04/23 07:22:48;;;;;;;7.32;6.72;;;17.30;94.90;;;;;;5075918;28;20477;-60
2021/04/23 07:25:17;;;;;;;7.20;6.60;;;17.20;95.20;;;;;;5075595;28;20505;-60
2021/04/23 07:27:45;;;;;;;7.45;6.97;;;17.00;95.30;;;;;;5075826;28;20186;-60
2021/04/23 07:30:32;;;;;;;8.85;7.97;;;16.90;95.90;;;;;;5075604;28;20021;-64
2021/04/23 07:33:00;;;;;;;9.18;8.52;;;16.80;96.20;;;;;;5075433;28;20051;-60
2021/04/23 07:35:28;;;;;;;9.18;8.50;;;16.60;96.40;;;;;;5075598;28;20024;-61
2021/04/23 07:37:57;;;;;;;8.95;8.15;;;16.50;96.70;;;;;;5074054;28;20039;-61
2021/04/23 07:40:24;;;;;;;9.05;8.35;;;16.40;97.00;;;;;;5073982;28;20056;-61
2021/04/23 07:42:52;;;;;;;7.97;7.30;;;16.40;97.10;;;;;;5075191;28;20498;-61
2021/04/23 07:45:20;;;;;;;8.35;7.57;;;16.30;97.40;;;;;;5075329;28;20099;-61
2021/04/23 07:47:48;;;;;;;8.10;7.38;;;16.20;97.80;;;;;;5075300;28;20016;-63
2021/04/23 07:50:18;;;;;;;8.55;7.95;;;16.20;98.10;;;;;;5075164;28;20048;-63
2021/04/23 07:52:46;;;;;;;12.32;7.85;;;16.10;98.30;;;;;;5075120;28;20028;-64
2021/04/23 07:55:15;;;;;;;8.35;7.57;;;16.00;98.30;;;;;;5074980;28;20031;-63
2021/04/23 07:57:42;;;;;;;9.35;8.45;;;16.00;98.60;;;;;;5075012;28;20094;-65
2021/04/23 08:00:12;;;;;;;9.63;8.70;;;15.90;98.60;;;;;;5075120;28;20520;-62
2021/04/23 08:02:40;;;;;;;9.20;8.50;;;15.90;98.80;;;;;;5075080;28;20025;-63
2021/04/23 08:05:10;;;;;;;9.50;8.50;;;15.90;99.10;;;;;;5074980;28;20108;-64
2021/04/23 08:07:37;;;;;;;8.63;7.82;;;15.90;99.30;;;;;;5075019;28;20111;-64
2021/04/23 08:10:05;;;;;;;9.55;8.65;;;15.80;99.40;;;;;;5074907;28;20533;-64
2021/04/23 08:12:33;;;;;;;9.02;8.18;;;15.80;99.40;;;;;;5074949;28;20478;-64
2021/04/23 08:15:00;;;;;;;10.10;8.75;;;15.70;99.70;;;;;;5074743;28;20032;-63
2021/04/23 08:17:27;;;;;;;9.35;8.60;;;15.60;99.90;;;;;;5074558;28;20021;-64
2021/04/23 08:19:55;;;;;;;10.43;9.48;;;15.60;99.90;;;;;;5073160;28;20421;-64
2021/04/23 08:22:22;;;;;;;11.10;10.20;;;15.50;99.90;;;;;;5074324;28;20036;-63
2021/04/23 08:24:49;;;;;;;11.75;10.65;;;15.50;99.90;;;;;;5074365;28;20242;-64
2021/04/23 08:27:17;;;;;;;10.63;9.63;;;15.40;99.90;;;;;;5074418;28;20028;-64
2021/04/23 08:29:44;;;;;;;10.13;9.27;;;15.40;99.90;;;;;;5074314;28;20060;-64
2021/04/23 08:32:11;;;;;;;10.23;9.32;;;15.40;99.90;;;;;;5074187;28;20504;-64
2021/04/23 08:34:39;;;;;;;11.20;10.30;;;15.40;99.90;;;;;;5074112;28;20032;-64
2021/04/23 08:37:06;;;;;;;10.63;9.45;;;15.30;99.90;;;;;;5074348;28;20021;-62
2021/04/23 08:39:34;;;;;;;10.68;9.63;;;15.20;99.90;;;;;;5073838;28;20048;-65
2021/04/23 08:42:01;;;;;;;10.25;9.35;;;15.20;99.90;;;;;;5074351;28;20020;-63
2021/04/23 08:44:28;;;;;;;9.90;9.10;;;15.10;99.90;;;;;;5074134;28;20077;-63
2021/04/23 08:46:56;;;;;;;9.57;8.65;;;15.10;99.90;;;;;;5074043;28;20466;-66
2021/04/23 08:49:26;;;;;;;9.38;8.63;;;15.00;99.90;;;;;;5073823;28;20028;-68
2021/04/23 08:51:54;;;;;;;10.63;9.82;;;14.90;99.90;;;;;;5073558;28;20059;-67
2021/04/23 08:54:24;;;;;;;15.30;13.80;;;14.90;99.90;;;;;;5073838;28;20021;-67
2021/04/23 08:56:52;;;;;;;18.15;16.33;;;14.80;99.90;;;;;;5073947;28;20370;-67
2021/04/23 08:59:19;;;;;;;13.73;12.52;;;14.70;99.90;;;;;;5074138;28;20025;-65
2021/04/23 09:01:46;;;;;;;12.50;11.50;;;14.70;99.90;;;;;;5073800;28;20021;-66
2021/04/23 09:04:14;;;;;;;12.93;11.20;;;14.70;99.90;;;;;;5073646;28;20040;-65
2021/04/23 09:06:41;;;;;;;11.63;10.65;;;14.60;99.90;;;;;;5073856;28;20036;-65
2021/04/23 09:09:14;;;;;;;10.60;9.80;;;14.60;99.90;;;;;;5073824;28;20021;-66
2021/04/23 09:11:44;;;;;;;10.10;9.27;;;14.60;99.90;;;;;;5073652;28;20017;-66
2021/04/23 09:14:12;;;;;;;;;;;14.60;99.90;;;;;;5072954;28;20385;-64
2021/04/23 09:16:46;;;;;;;10.40;9.60;;;14.60;99.90;;;;;;5073604;28;19974;-68
2021/04/23 09:19:28;;;;;;;9.70;8.90;;;14.50;99.90;;;;;;5073680;28;20025;-66
2021/04/23 09:21:56;;;;;;;9.68;8.88;;;14.50;99.90;;;;;;5073608;28;20016;-67
2021/04/23 09:24:30;;;;;;;10.75;9.80;;;14.50;99.90;;;;;;5073366;28;20045;-67
2021/04/23 09:26:59;;;;;;;12.00;11.00;;;14.40;99.90;;;;;;5072261;28;20480;-67
2021/04/23 09:29:32;;;;;;;14.18;12.43;;;14.40;99.90;;;;;;5073589;28;20020;-68
2021/04/23 09:32:14;;;;;;;12.23;11.07;;;14.40;99.90;;;;;;5073590;28;20036;-68
2021/04/23 09:34:54;;;;;;;11.48;10.38;;;14.40;99.90;;;;;;5073223;28;20021;-67
2021/04/23 09:37:24;;;;;;;12.63;11.48;;;14.40;99.90;;;;;;5073407;28;20496;-67
2021/04/23 09:39:52;;;;;;;13.70;12.33;;;14.40;99.90;;;;;;5071636;28;20041;-69
2021/04/23 09:42:21;;;;;;;13.95;12.63;;;14.30;99.90;;;;;;5072086;28;20634;-67
2021/04/23 09:44:50;;;;;;;14.05;12.75;;;14.30;99.90;;;;;;5073199;28;20389;-66
2021/04/23 09:47:23;;;;;;;14.40;12.95;;;14.30;99.90;;;;;;5073118;28;20027;-67
2021/04/23 09:49:58;;;;;;;13.57;12.38;;;14.20;99.90;;;;;;5073151;28;20384;-66
2021/04/23 09:52:27;;;;;;;14.55;12.93;;;14.10;99.90;;;;;;5073351;28;20031;-69
2021/04/23 09:54:59;;;;;;;14.57;13.18;;;14.10;99.90;;;;;;5072960;28;20036;-67
2021/04/23 09:57:36;;;;;;;14.30;13.05;;;14.20;99.90;;;;;;5073017;28;20025;-65
2021/04/23 10:00:08;;;;;;;13.63;12.52;;;14.20;99.90;;;;;;5073037;28;20086;-67
2021/04/23 10:02:36;;;;;;;15.10;13.80;;;14.20;99.90;;;;;;5070940;28;20035;-63
2021/04/23 10:05:05;;;;;;;14.95;13.60;;;14.20;99.90;;;;;;5072926;28;20094;-66
2021/04/23 10:07:34;;;;;;;15.77;14.27;;;14.10;99.90;;;;;;5072991;28;20385;-67
2021/04/23 10:10:11;;;;;;;16.88;15.73;;;14.20;99.90;;;;;;5072948;28;20020;-67
2021/04/23 10:12:41;;;;;;;16.88;15.38;;;14.20;99.90;;;;;;5072940;28;20024;-66
2021/04/23 10:15:23;;;;;;;16.58;15.05;;;14.20;99.90;;;;;;5073106;28;20031;-65
2021/04/23 10:17:57;;;;;;;16.25;14.80;;;14.30;99.90;;;;;;5072968;28;20051;-67
2021/04/23 10:20:27;;;;;;;15.13;14.00;;;14.20;99.90;;;;;;5072792;28;20031;-67
2021/04/23 10:22:56;;;;;;;16.20;14.70;;;14.20;99.90;;;;;;5072775;28;20027;-67
2021/04/23 10:25:25;;;;;;;16.55;15.15;;;14.20;99.90;;;;;;5072664;28;20032;-66
2021/04/23 10:27:55;;;;;;;15.48;14.27;;;14.20;99.90;;;;;;5072735;28;20078;-66
2021/04/23 10:30:33;;;;;;;16.45;15.13;;;14.20;99.90;;;;;;5072718;28;20070;-67
2021/04/23 10:33:03;;;;;;;14.93;13.70;;;14.20;99.90;;;;;;5072648;28;20028;-66
2021/04/23 10:35:31;;;;;;;14.35;13.25;;;14.20;99.90;;;;;;5072740;28;20028;-66
2021/04/23 10:38:05;;;;;;;15.18;13.88;;;14.10;99.90;;;;;;5072559;28;20085;-65
2021/04/23 10:40:33;;;;;;;14.60;13.38;;;14.10;99.90;;;;;;5071666;28;20124;-67
2021/04/23 10:43:09;;;;;;;15.07;13.93;;;14.00;99.90;;;;;;5072505;28;20360;-66
2021/04/23 10:45:42;;;;;;;15.80;14.50;;;14.00;99.90;;;;;;5072510;28;20108;-67
2021/04/23 10:48:16;;;;;;;15.32;14.13;;;14.00;99.90;;;;;;5072579;28;20355;-65
2021/04/23 10:50:48;;;;;;;15.60;14.30;;;13.90;99.90;;;;;;5072466;28;20096;-67
2021/04/23 10:53:44;;;;;;;15.50;14.40;;;13.90;99.90;;;;;;5072377;28;20020;-68
2021/04/23 10:56:28;;;;;;;14.95;13.85;;;13.80;99.90;;;;;;5072361;28;20089;-66
2021/04/23 10:59:01;;;;;;;15.75;14.55;;;13.70;99.90;;;;;;5072664;28;20149;-66
2021/04/23 11:01:32;;;;;;;15.27;14.07;;;13.70;99.90;;;;;;5072469;28;20065;-66
2021/04/23 11:04:03;;;;;;;15.68;14.50;;;13.70;99.90;;;;;;5072299;28;20053;-67
2021/04/23 11:06:34;;;;;;;17.08;15.85;;;13.70;99.90;;;;;;5072500;28;20028;-66
2021/04/23 11:09:03;;;;;;;15.70;14.63;;;13.70;99.90;;;;;;5072434;28;20362;-66
2021/04/23 11:11:37;;;;;;;17.00;15.77;;;13.70;99.90;;;;;;5072635;28;20021;-66
2021/04/23 11:14:25;;;;;;;16.02;14.75;;;13.70;99.90;;;;;;5072874;28;20024;-66
2021/04/23 11:16:55;;;;;;;16.58;15.20;;;13.70;99.90;;;;;;5076012;28;20046;-68
2021/04/23 11:19:22;;;;;;;16.90;15.50;;;13.60;99.90;;;;;;5075999;28;20016;-66
2021/04/23 11:21:51;;;;;;;16.17;14.98;;;13.60;99.90;;;;;;5075918;28;20024;-66
2021/04/23 11:24:28;;;;;;;16.48;15.32;;;13.50;99.90;;;;;;5075762;28;20048;-67
2021/04/23 11:27:00;;;;;;;16.80;15.43;;;13.40;99.90;;;;;;5075763;28;20017;-66
2021/04/23 11:29:35;;;;;;;16.88;15.43;;;13.40;99.90;;;;;;5075713;28;20123;-66
2021/04/23 11:32:22;;;;;;;18.50;16.90;;;13.50;99.90;;;;;;5074472;28;20382;-66
2021/04/23 11:34:54;;;;;;;18.40;17.02;;;13.60;99.90;;;;;;5075520;28;20477;-66
2021/04/23 11:37:27;;;;;;;18.42;17.13;;;13.60;99.90;;;;;;5075805;28;20482;-66
2021/04/23 11:40:17;;;;;;;18.25;16.90;;;13.60;99.90;;;;;;5075311;28;20116;-67
2021/04/23 11:42:46;;;;;;;18.38;16.98;;;13.70;99.90;;;;;;5075482;28;20024;-66
2021/04/23 11:45:19;;;;;;;18.30;17.10;;;13.60;99.90;;;;;;5075271;28;20043;-66
2021/04/23 11:47:49;;;;;;;18.70;17.17;;;13.50;99.90;;;;;;5075347;28;20021;-68
2021/04/23 11:50:17;;;;;;;18.98;17.33;;;13.50;99.90;;;;;;5073980;28;20021;-66
2021/04/23 11:52:49;;;;;;;20.38;18.55;;;13.40;99.90;;;;;;5075225;28;20032;-66
2021/04/23 11:55:27;;;;;;;19.15;17.70;;;13.30;99.90;;;;;;5075141;28;20035;-66
2021/04/23 11:58:01;;;;;;;19.90;18.38;;;13.30;99.90;;;;;;5075200;28;20428;-66
2021/04/23 12:00:29;;;;;;;19.15;17.77;;;13.20;99.90;;;;;;5075267;28;20049;-65
2021/04/23 12:03:16;;;;;;;19.73;18.33;;;13.20;99.90;;;;;;5074851;28;20455;-66
2021/04/23 12:05:51;;;;;;;19.45;18.15;;;13.20;99.90;;;;;;5074981;28;20028;-67
2021/04/23 12:08:22;;;;;;;20.17;18.70;;;13.10;99.90;;;;;;5074913;28;20527;-65
2021/04/23 12:10:58;;;;;;;19.60;18.27;;;13.00;99.90;;;;;;5074931;28;20032;-65
2021/04/23 12:13:30;;;;;;;19.90;18.40;;;13.00;99.90;;;;;;5074819;28;20024;-67
2021/04/23 12:16:04;;;;;;;19.83;18.50;;;13.00;99.90;;;;;;5074803;28;20489;-67
2021/04/23 12:18:32;;;;;;;20.70;18.98;;;13.00;99.90;;;;;;5074755;28;20021;-67
2021/04/23 12:21:01;;;;;;;20.35;18.92;;;12.90;99.90;;;;;;5074683;28;20035;-66
2021/04/23 12:23:33;;;;;;;20.45;19.08;;;13.00;99.90;;;;;;5074616;28;20020;-66
2021/04/23 12:26:03;;;;;;;20.50;19.20;;;13.00;99.90;;;;;;5073892;28;20013;-66
2021/04/23 12:28:37;;;;;;;20.63;19.17;;;13.00;99.90;;;;;;5074611;28;20017;-66
2021/04/23 12:31:23;;;;;;;19.85;18.55;;;13.10;99.90;;;;;;5074497;28;20074;-66
2021/04/23 12:33:54;;;;;;;19.83;18.52;;;13.00;99.90;;;;;;5074403;28;20052;-66
2021/04/23 12:36:33;;;;;;;20.13;18.73;;;13.00;99.90;;;;;;5074634;28;20017;-66
2021/04/23 12:39:22;;;;;;;19.73;18.40;;;13.00;99.90;;;;;;5074209;28;20044;-66
2021/04/23 12:41:51;;;;;;;20.52;18.80;;;13.10;99.90;;;;;;5074386;28;20013;-66
2021/04/23 12:44:23;;;;;;;20.52;18.92;;;13.00;99.90;;;;;;5074233;28;20025;-66
2021/04/23 12:47:02;;;;;;;19.33;18.13;;;12.90;99.90;;;;;;5074251;28;20039;-67
2021/04/23 12:49:33;;;;;;;20.10;18.60;;;12.90;99.90;;;;;;5074175;28;20020;-66
2021/04/23 12:52:01;;;;;;;;;;;12.80;99.90;;;;;;5074626;28;20028;-66
2021/04/23 12:54:36;;;;;;;20.27;18.67;;;12.80;99.90;;;;;;5074066;28;19947;-66
2021/04/23 12:57:10;;;;;;;19.58;18.20;;;12.80;99.90;;;;;;5072709;28;20028;-65